sensor_id;sensor_type;location;lat;lon;timestamp;P1;durP1;ratioP1;P2;durP2;ratioP2
789;SDS011;378;48.844;9.156;2024-02-28T00:00:15;26.38;;;13.18;;
789;SDS011;378;48.844;9.156;2024-02-28T00:02:42;26.80;;;13.50;;
789;SDS011;378;48.844;9.156;2024-02-28T00:05:09;23.25;;;12.50;;
789;SDS011;378;48.844;9.156;2024-02-28T00:07:36;25.60;;;12.82;;
789;SDS011;378;48.844;9.156;2024-02-28T00:10:03;24.77;;;12.88;;
789;SDS011;378;48.844;9.156;2024-02-28T00:12:30;25.95;;;13.20;;
789;SDS011;378;48.844;9.156;2024-02-28T00:14:57;26.40;;;13.30;;
789;SDS011;378;48.844;9.156;2024-02-28T00:17:25;25.25;;;13.45;;
789;SDS011;378;48.844;9.156;2024-02-28T00:19:52;30.90;;;14.30;;
789;SDS011;378;48.844;9.156;2024-02-28T00:22:19;26.75;;;12.95;;
789;SDS011;378;48.844;9.156;2024-02-28T00:24:46;26.00;;;12.85;;
789;SDS011;378;48.844;9.156;2024-02-28T00:27:13;22.40;;;11.73;;
789;SDS011;378;48.844;9.156;2024-02-28T00:29:39;24.05;;;12.15;;
789;SDS011;378;48.844;9.156;2024-02-28T00:32:06;30.23;;;14.02;;
789;SDS011;378;48.844;9.156;2024-02-28T00:34:35;24.77;;;12.63;;
789;SDS011;378;48.844;9.156;2024-02-28T00:37:02;23.45;;;12.48;;
789;SDS011;378;48.844;9.156;2024-02-28T00:39:28;24.40;;;12.68;;
789;SDS011;378;48.844;9.156;2024-02-28T00:41:55;23.52;;;12.93;;
789;SDS011;378;48.844;9.156;2024-02-28T00:44:22;23.98;;;12.77;;
789;SDS011;378;48.844;9.156;2024-02-28T00:46:49;24.05;;;11.93;;
789;SDS011;378;48.844;9.156;2024-02-28T00:49:16;29.83;;;13.35;;
789;SDS011;378;48.844;9.156;2024-02-28T00:51:45;27.73;;;13.57;;
789;SDS011;378;48.844;9.156;2024-02-28T00:54:12;25.80;;;13.15;;
789;SDS011;378;48.844;9.156;2024-02-28T00:56:39;24.17;;;13.18;;
789;SDS011;378;48.844;9.156;2024-02-28T00:59:06;26.58;;;13.30;;
789;SDS011;378;48.844;9.156;2024-02-28T01:01:36;27.90;;;13.95;;
789;SDS011;378;48.844;9.156;2024-02-28T01:04:02;32.13;;;14.52;;
789;SDS011;378;48.844;9.156;2024-02-28T01:06:29;32.22;;;15.05;;
789;SDS011;378;48.844;9.156;2024-02-28T01:08:57;30.25;;;14.45;;
789;SDS011;378;48.844;9.156;2024-02-28T01:11:24;30.13;;;13.95;;
789;SDS011;378;48.844;9.156;2024-02-28T01:13:51;27.60;;;13.10;;
789;SDS011;378;48.844;9.156;2024-02-28T01:16:18;30.50;;;14.02;;
789;SDS011;378;48.844;9.156;2024-02-28T01:18:45;33.35;;;14.38;;
789;SDS011;378;48.844;9.156;2024-02-28T01:21:12;27.83;;;13.98;;
789;SDS011;378;48.844;9.156;2024-02-28T01:23:38;31.95;;;15.10;;
789;SDS011;378;48.844;9.156;2024-02-28T01:26:07;29.50;;;15.38;;
789;SDS011;378;48.844;9.156;2024-02-28T01:28:33;29.80;;;14.10;;
789;SDS011;378;48.844;9.156;2024-02-28T01:31:00;32.38;;;15.68;;
789;SDS011;378;48.844;9.156;2024-02-28T01:33:27;26.92;;;14.27;;
789;SDS011;378;48.844;9.156;2024-02-28T01:35:54;30.52;;;14.20;;
789;SDS011;378;48.844;9.156;2024-02-28T01:38:21;29.33;;;14.18;;
789;SDS011;378;48.844;9.156;2024-02-28T01:40:48;31.70;;;15.13;;
789;SDS011;378;48.844;9.156;2024-02-28T01:43:16;30.77;;;13.88;;
789;SDS011;378;48.844;9.156;2024-02-28T01:45:43;26.98;;;13.70;;
789;SDS011;378;48.844;9.156;2024-02-28T01:48:10;25.92;;;13.48;;
789;SDS011;378;48.844;9.156;2024-02-28T01:50:38;26.58;;;13.82;;
789;SDS011;378;48.844;9.156;2024-02-28T01:53:05;26.67;;;14.02;;
789;SDS011;378;48.844;9.156;2024-02-28T01:55:34;27.17;;;13.10;;
789;SDS011;378;48.844;9.156;2024-02-28T01:58:01;25.95;;;13.52;;
789;SDS011;378;48.844;9.156;2024-02-28T02:00:32;24.67;;;12.30;;
789;SDS011;378;48.844;9.156;2024-02-28T02:02:59;24.42;;;12.57;;
789;SDS011;378;48.844;9.156;2024-02-28T02:05:27;25.83;;;12.90;;
789;SDS011;378;48.844;9.156;2024-02-28T02:07:54;23.45;;;12.02;;
789;SDS011;378;48.844;9.156;2024-02-28T02:10:23;29.88;;;13.38;;
789;SDS011;378;48.844;9.156;2024-02-28T02:12:50;24.08;;;12.80;;
789;SDS011;378;48.844;9.156;2024-02-28T02:15:16;25.52;;;12.75;;
789;SDS011;378;48.844;9.156;2024-02-28T02:17:45;27.20;;;13.57;;
789;SDS011;378;48.844;9.156;2024-02-28T02:20:12;27.42;;;12.90;;
789;SDS011;378;48.844;9.156;2024-02-28T02:22:42;21.30;;;11.93;;
789;SDS011;378;48.844;9.156;2024-02-28T02:25:09;26.13;;;13.43;;
789;SDS011;378;48.844;9.156;2024-02-28T02:27:36;24.73;;;12.77;;
789;SDS011;378;48.844;9.156;2024-02-28T02:30:03;24.38;;;12.13;;
789;SDS011;378;48.844;9.156;2024-02-28T02:32:31;29.33;;;13.60;;
789;SDS011;378;48.844;9.156;2024-02-28T02:34:57;24.00;;;12.13;;
789;SDS011;378;48.844;9.156;2024-02-28T02:37:24;23.98;;;12.02;;
789;SDS011;378;48.844;9.156;2024-02-28T02:39:53;28.30;;;12.98;;
789;SDS011;378;48.844;9.156;2024-02-28T02:42:20;28.02;;;12.82;;
789;SDS011;378;48.844;9.156;2024-02-28T02:44:47;24.88;;;12.90;;
789;SDS011;378;48.844;9.156;2024-02-28T02:47:14;27.27;;;13.38;;
789;SDS011;378;48.844;9.156;2024-02-28T02:49:41;28.02;;;13.00;;
789;SDS011;378;48.844;9.156;2024-02-28T02:52:08;26.77;;;13.05;;
789;SDS011;378;48.844;9.156;2024-02-28T02:54:34;26.70;;;13.13;;
789;SDS011;378;48.844;9.156;2024-02-28T02:57:04;26.50;;;12.57;;
789;SDS011;378;48.844;9.156;2024-02-28T02:59:31;28.35;;;13.25;;
789;SDS011;378;48.844;9.156;2024-02-28T03:01:57;23.10;;;12.48;;
789;SDS011;378;48.844;9.156;2024-02-28T03:04:24;27.40;;;12.98;;
789;SDS011;378;48.844;9.156;2024-02-28T03:06:51;25.10;;;12.27;;
789;SDS011;378;48.844;9.156;2024-02-28T03:09:18;31.75;;;13.57;;
789;SDS011;378;48.844;9.156;2024-02-28T03:11:45;26.77;;;13.20;;
789;SDS011;378;48.844;9.156;2024-02-28T03:14:13;30.63;;;13.13;;
789;SDS011;378;48.844;9.156;2024-02-28T03:16:40;27.80;;;13.60;;
789;SDS011;378;48.844;9.156;2024-02-28T03:19:07;29.60;;;13.02;;
789;SDS011;378;48.844;9.156;2024-02-28T03:21:34;26.95;;;12.90;;
789;SDS011;378;48.844;9.156;2024-02-28T03:24:01;29.70;;;13.32;;
789;SDS011;378;48.844;9.156;2024-02-28T03:26:28;28.92;;;12.85;;
789;SDS011;378;48.844;9.156;2024-02-28T03:28:55;25.10;;;13.07;;
789;SDS011;378;48.844;9.156;2024-02-28T03:31:23;26.20;;;13.43;;
789;SDS011;378;48.844;9.156;2024-02-28T03:33:50;26.17;;;13.73;;
789;SDS011;378;48.844;9.156;2024-02-28T03:36:17;29.35;;;13.32;;
789;SDS011;378;48.844;9.156;2024-02-28T03:38:44;29.50;;;13.73;;
789;SDS011;378;48.844;9.156;2024-02-28T03:41:11;25.85;;;13.55;;
789;SDS011;378;48.844;9.156;2024-02-28T03:43:37;27.98;;;13.40;;
789;SDS011;378;48.844;9.156;2024-02-28T03:46:04;26.00;;;12.82;;
789;SDS011;378;48.844;9.156;2024-02-28T03:48:33;25.80;;;13.32;;
789;SDS011;378;48.844;9.156;2024-02-28T03:50:59;27.63;;;14.05;;
789;SDS011;378;48.844;9.156;2024-02-28T03:53:26;25.67;;;13.63;;
789;SDS011;378;48.844;9.156;2024-02-28T03:55:53;27.88;;;13.48;;
789;SDS011;378;48.844;9.156;2024-02-28T03:58:20;26.13;;;12.98;;
789;SDS011;378;48.844;9.156;2024-02-28T04:00:47;28.23;;;13.75;;
789;SDS011;378;48.844;9.156;2024-02-28T04:03:14;24.85;;;12.60;;
789;SDS011;378;48.844;9.156;2024-02-28T04:05:42;26.63;;;13.63;;
789;SDS011;378;48.844;9.156;2024-02-28T04:08:09;28.80;;;12.98;;
789;SDS011;378;48.844;9.156;2024-02-28T04:10:35;26.35;;;12.98;;
789;SDS011;378;48.844;9.156;2024-02-28T04:13:02;25.73;;;13.38;;
789;SDS011;378;48.844;9.156;2024-02-28T04:15:29;25.88;;;12.45;;
789;SDS011;378;48.844;9.156;2024-02-28T04:17:56;26.52;;;12.70;;
789;SDS011;378;48.844;9.156;2024-02-28T04:20:23;27.77;;;13.18;;
789;SDS011;378;48.844;9.156;2024-02-28T04:22:52;27.40;;;12.90;;
789;SDS011;378;48.844;9.156;2024-02-28T04:25:18;25.30;;;13.20;;
789;SDS011;378;48.844;9.156;2024-02-28T04:27:45;24.58;;;12.85;;
789;SDS011;378;48.844;9.156;2024-02-28T04:30:12;24.90;;;13.10;;
789;SDS011;378;48.844;9.156;2024-02-28T04:32:39;25.40;;;12.85;;
789;SDS011;378;48.844;9.156;2024-02-28T04:35:06;27.92;;;13.25;;
789;SDS011;378;48.844;9.156;2024-02-28T04:37:34;26.90;;;13.27;;
789;SDS011;378;48.844;9.156;2024-02-28T04:40:02;29.33;;;13.43;;
789;SDS011;378;48.844;9.156;2024-02-28T04:42:31;24.08;;;12.98;;
789;SDS011;378;48.844;9.156;2024-02-28T04:44:58;24.10;;;12.57;;
789;SDS011;378;48.844;9.156;2024-02-28T04:47:25;24.48;;;13.95;;
789;SDS011;378;48.844;9.156;2024-02-28T04:49:52;25.30;;;13.65;;
789;SDS011;378;48.844;9.156;2024-02-28T04:52:19;26.85;;;13.45;;
789;SDS011;378;48.844;9.156;2024-02-28T04:54:45;26.23;;;13.55;;
789;SDS011;378;48.844;9.156;2024-02-28T04:57:14;30.85;;;14.70;;
789;SDS011;378;48.844;9.156;2024-02-28T04:59:41;27.92;;;13.73;;
789;SDS011;378;48.844;9.156;2024-02-28T05:02:09;29.15;;;13.70;;
789;SDS011;378;48.844;9.156;2024-02-28T05:04:36;26.42;;;14.35;;
789;SDS011;378;48.844;9.156;2024-02-28T05:07:03;31.42;;;14.70;;
789;SDS011;378;48.844;9.156;2024-02-28T05:09:32;30.17;;;14.57;;
789;SDS011;378;48.844;9.156;2024-02-28T05:11:59;29.85;;;13.85;;
789;SDS011;378;48.844;9.156;2024-02-28T05:14:27;28.50;;;14.73;;
789;SDS011;378;48.844;9.156;2024-02-28T05:16:54;28.50;;;14.35;;
789;SDS011;378;48.844;9.156;2024-02-28T05:19:21;28.42;;;14.55;;
789;SDS011;378;48.844;9.156;2024-02-28T05:21:48;29.50;;;14.25;;
789;SDS011;378;48.844;9.156;2024-02-28T05:24:15;29.98;;;14.30;;
789;SDS011;378;48.844;9.156;2024-02-28T05:26:41;26.25;;;13.77;;
789;SDS011;378;48.844;9.156;2024-02-28T05:29:08;32.85;;;14.82;;
789;SDS011;378;48.844;9.156;2024-02-28T05:31:36;31.52;;;14.77;;
789;SDS011;378;48.844;9.156;2024-02-28T05:34:03;27.45;;;14.23;;
789;SDS011;378;48.844;9.156;2024-02-28T05:36:30;28.50;;;14.55;;
789;SDS011;378;48.844;9.156;2024-02-28T05:38:58;31.70;;;14.75;;
789;SDS011;378;48.844;9.156;2024-02-28T05:41:26;30.55;;;14.43;;
789;SDS011;378;48.844;9.156;2024-02-28T05:43:53;31.30;;;15.57;;
789;SDS011;378;48.844;9.156;2024-02-28T05:46:21;28.02;;;14.07;;
789;SDS011;378;48.844;9.156;2024-02-28T05:48:50;30.00;;;14.52;;
789;SDS011;378;48.844;9.156;2024-02-28T05:51:17;28.70;;;14.23;;
789;SDS011;378;48.844;9.156;2024-02-28T05:53:43;29.08;;;14.18;;
789;SDS011;378;48.844;9.156;2024-02-28T05:56:10;33.28;;;14.55;;
789;SDS011;378;48.844;9.156;2024-02-28T05:58:39;28.70;;;14.63;;
789;SDS011;378;48.844;9.156;2024-02-28T06:01:06;31.75;;;15.70;;
789;SDS011;378;48.844;9.156;2024-02-28T06:03:34;29.52;;;16.27;;
789;SDS011;378;48.844;9.156;2024-02-28T06:06:03;32.53;;;15.98;;
789;SDS011;378;48.844;9.156;2024-02-28T06:08:31;35.72;;;16.80;;
789;SDS011;378;48.844;9.156;2024-02-28T06:10:58;31.35;;;15.38;;
789;SDS011;378;48.844;9.156;2024-02-28T06:13:26;32.10;;;16.67;;
789;SDS011;378;48.844;9.156;2024-02-28T06:15:53;31.45;;;16.23;;
789;SDS011;378;48.844;9.156;2024-02-28T06:18:20;30.80;;;15.85;;
789;SDS011;378;48.844;9.156;2024-02-28T06:20:48;29.40;;;16.25;;
789;SDS011;378;48.844;9.156;2024-02-28T06:23:16;31.27;;;15.88;;
789;SDS011;378;48.844;9.156;2024-02-28T06:25:44;32.90;;;16.27;;
789;SDS011;378;48.844;9.156;2024-02-28T06:28:11;30.73;;;16.50;;
789;SDS011;378;48.844;9.156;2024-02-28T06:30:38;33.63;;;16.52;;
789;SDS011;378;48.844;9.156;2024-02-28T06:33:05;34.28;;;16.00;;
789;SDS011;378;48.844;9.156;2024-02-28T06:35:33;33.03;;;16.38;;
789;SDS011;378;48.844;9.156;2024-02-28T06:38:00;29.23;;;15.52;;
789;SDS011;378;48.844;9.156;2024-02-28T06:40:29;30.88;;;16.35;;
789;SDS011;378;48.844;9.156;2024-02-28T06:42:55;35.05;;;15.88;;
789;SDS011;378;48.844;9.156;2024-02-28T06:45:22;33.50;;;16.50;;
789;SDS011;378;48.844;9.156;2024-02-28T06:47:49;33.45;;;16.88;;
789;SDS011;378;48.844;9.156;2024-02-28T06:50:16;38.28;;;16.50;;
789;SDS011;378;48.844;9.156;2024-02-28T06:52:43;33.53;;;16.85;;
789;SDS011;378;48.844;9.156;2024-02-28T06:55:10;29.63;;;16.35;;
789;SDS011;378;48.844;9.156;2024-02-28T06:57:40;35.17;;;15.60;;
789;SDS011;378;48.844;9.156;2024-02-28T07:00:08;31.90;;;16.33;;
789;SDS011;378;48.844;9.156;2024-02-28T07:02:36;29.15;;;15.52;;
789;SDS011;378;48.844;9.156;2024-02-28T07:05:03;30.83;;;15.57;;
789;SDS011;378;48.844;9.156;2024-02-28T07:07:31;31.88;;;15.95;;
789;SDS011;378;48.844;9.156;2024-02-28T07:09:58;37.80;;;16.25;;
789;SDS011;378;48.844;9.156;2024-02-28T07:12:25;35.08;;;16.35;;
789;SDS011;378;48.844;9.156;2024-02-28T07:14:54;31.98;;;16.55;;
789;SDS011;378;48.844;9.156;2024-02-28T07:17:21;31.38;;;15.88;;
789;SDS011;378;48.844;9.156;2024-02-28T07:19:48;32.05;;;16.23;;
789;SDS011;378;48.844;9.156;2024-02-28T07:22:15;39.40;;;16.75;;
789;SDS011;378;48.844;9.156;2024-02-28T07:24:43;31.95;;;16.33;;
789;SDS011;378;48.844;9.156;2024-02-28T07:27:10;36.90;;;16.55;;
789;SDS011;378;48.844;9.156;2024-02-28T07:29:37;32.55;;;16.45;;
789;SDS011;378;48.844;9.156;2024-02-28T07:32:05;34.78;;;16.65;;
789;SDS011;378;48.844;9.156;2024-02-28T07:34:32;37.47;;;16.50;;
789;SDS011;378;48.844;9.156;2024-02-28T07:37:00;32.20;;;15.93;;
789;SDS011;378;48.844;9.156;2024-02-28T07:39:26;34.05;;;16.67;;
789;SDS011;378;48.844;9.156;2024-02-28T07:41:53;33.85;;;16.27;;
789;SDS011;378;48.844;9.156;2024-02-28T07:44:20;41.78;;;17.23;;
789;SDS011;378;48.844;9.156;2024-02-28T07:46:47;34.25;;;16.42;;
789;SDS011;378;48.844;9.156;2024-02-28T07:49:17;34.20;;;16.45;;
789;SDS011;378;48.844;9.156;2024-02-28T07:51:43;29.90;;;15.40;;
789;SDS011;378;48.844;9.156;2024-02-28T07:54:10;34.00;;;15.82;;
789;SDS011;378;48.844;9.156;2024-02-28T07:56:37;33.78;;;16.92;;
789;SDS011;378;48.844;9.156;2024-02-28T07:59:04;34.78;;;15.98;;
789;SDS011;378;48.844;9.156;2024-02-28T08:01:31;30.75;;;15.50;;
789;SDS011;378;48.844;9.156;2024-02-28T08:03:58;36.20;;;19.65;;
789;SDS011;378;48.844;9.156;2024-02-28T08:06:26;35.28;;;18.50;;
789;SDS011;378;48.844;9.156;2024-02-28T08:08:53;35.42;;;16.75;;
789;SDS011;378;48.844;9.156;2024-02-28T08:11:20;32.35;;;16.30;;
789;SDS011;378;48.844;9.156;2024-02-28T08:13:48;32.65;;;16.20;;
789;SDS011;378;48.844;9.156;2024-02-28T08:16:15;33.42;;;15.82;;
789;SDS011;378;48.844;9.156;2024-02-28T08:18:41;34.15;;;15.30;;
789;SDS011;378;48.844;9.156;2024-02-28T08:21:08;34.85;;;16.08;;
789;SDS011;378;48.844;9.156;2024-02-28T08:23:36;31.67;;;16.17;;
789;SDS011;378;48.844;9.156;2024-02-28T08:26:03;34.72;;;16.38;;
789;SDS011;378;48.844;9.156;2024-02-28T08:28:30;31.63;;;15.85;;
789;SDS011;378;48.844;9.156;2024-02-28T08:30:57;32.25;;;15.50;;
789;SDS011;378;48.844;9.156;2024-02-28T08:33:25;33.20;;;16.45;;
789;SDS011;378;48.844;9.156;2024-02-28T08:35:51;31.45;;;15.63;;
789;SDS011;378;48.844;9.156;2024-02-28T08:38:18;31.05;;;15.27;;
789;SDS011;378;48.844;9.156;2024-02-28T08:40:47;34.67;;;15.75;;
789;SDS011;378;48.844;9.156;2024-02-28T08:43:14;33.50;;;16.50;;
789;SDS011;378;48.844;9.156;2024-02-28T08:45:40;37.17;;;16.00;;
789;SDS011;378;48.844;9.156;2024-02-28T08:48:07;33.88;;;16.23;;
789;SDS011;378;48.844;9.156;2024-02-28T08:50:34;34.20;;;15.57;;
789;SDS011;378;48.844;9.156;2024-02-28T08:53:01;31.13;;;15.68;;
789;SDS011;378;48.844;9.156;2024-02-28T08:55:28;29.80;;;15.20;;
789;SDS011;378;48.844;9.156;2024-02-28T08:57:57;32.22;;;15.73;;
789;SDS011;378;48.844;9.156;2024-02-28T09:00:24;29.08;;;14.98;;
789;SDS011;378;48.844;9.156;2024-02-28T09:02:51;32.55;;;15.70;;
789;SDS011;378;48.844;9.156;2024-02-28T09:05:18;33.53;;;15.60;;
789;SDS011;378;48.844;9.156;2024-02-28T09:07:45;30.60;;;15.55;;
789;SDS011;378;48.844;9.156;2024-02-28T09:10:16;32.30;;;14.73;;
789;SDS011;378;48.844;9.156;2024-02-28T09:12:46;35.00;;;15.27;;
789;SDS011;378;48.844;9.156;2024-02-28T09:15:15;35.03;;;15.13;;
789;SDS011;378;48.844;9.156;2024-02-28T09:17:41;31.02;;;15.35;;
789;SDS011;378;48.844;9.156;2024-02-28T09:20:10;31.52;;;14.50;;
789;SDS011;378;48.844;9.156;2024-02-28T09:22:37;29.45;;;14.70;;
789;SDS011;378;48.844;9.156;2024-02-28T09:25:05;37.72;;;15.60;;
789;SDS011;378;48.844;9.156;2024-02-28T09:27:33;28.83;;;13.85;;
789;SDS011;378;48.844;9.156;2024-02-28T09:30:00;25.98;;;14.35;;
789;SDS011;378;48.844;9.156;2024-02-28T09:32:29;32.63;;;14.95;;
789;SDS011;378;48.844;9.156;2024-02-28T09:34:56;32.08;;;15.45;;
789;SDS011;378;48.844;9.156;2024-02-28T09:37:22;32.28;;;15.45;;
789;SDS011;378;48.844;9.156;2024-02-28T09:39:50;32.58;;;15.02;;
789;SDS011;378;48.844;9.156;2024-02-28T09:45:49;27.63;;;14.20;;
789;SDS011;378;48.844;9.156;2024-02-28T09:48:23;28.30;;;13.70;;
789;SDS011;378;48.844;9.156;2024-02-28T09:50:53;26.42;;;13.80;;
789;SDS011;378;48.844;9.156;2024-02-28T09:53:21;27.52;;;13.90;;
789;SDS011;378;48.844;9.156;2024-02-28T09:55:47;30.92;;;14.18;;
789;SDS011;378;48.844;9.156;2024-02-28T09:58:15;28.88;;;14.10;;
789;SDS011;378;48.844;9.156;2024-02-28T10:00:44;25.42;;;12.73;;
789;SDS011;378;48.844;9.156;2024-02-28T10:03:19;25.05;;;13.10;;
789;SDS011;378;48.844;9.156;2024-02-28T10:05:49;28.48;;;13.68;;
789;SDS011;378;48.844;9.156;2024-02-28T10:08:16;28.27;;;14.02;;
789;SDS011;378;48.844;9.156;2024-02-28T10:10:46;25.42;;;13.23;;
789;SDS011;378;48.844;9.156;2024-02-28T10:13:27;27.45;;;14.90;;
789;SDS011;378;48.844;9.156;2024-02-28T10:15:54;28.38;;;14.75;;
789;SDS011;378;48.844;9.156;2024-02-28T10:18:21;30.65;;;14.52;;
789;SDS011;378;48.844;9.156;2024-02-28T10:20:51;24.27;;;13.32;;
789;SDS011;378;48.844;9.156;2024-02-28T10:23:18;30.25;;;14.18;;
789;SDS011;378;48.844;9.156;2024-02-28T10:25:45;25.90;;;13.80;;
789;SDS011;378;48.844;9.156;2024-02-28T10:28:13;26.13;;;13.25;;
789;SDS011;378;48.844;9.156;2024-02-28T10:30:41;29.33;;;13.88;;
789;SDS011;378;48.844;9.156;2024-02-28T10:33:11;32.33;;;14.35;;
789;SDS011;378;48.844;9.156;2024-02-28T10:35:39;29.05;;;14.43;;
789;SDS011;378;48.844;9.156;2024-02-28T10:38:08;27.48;;;14.18;;
789;SDS011;378;48.844;9.156;2024-02-28T10:40:36;27.30;;;13.48;;
789;SDS011;378;48.844;9.156;2024-02-28T10:43:04;27.88;;;13.45;;
789;SDS011;378;48.844;9.156;2024-02-28T10:45:32;23.65;;;11.77;;
789;SDS011;378;48.844;9.156;2024-02-28T10:48:01;27.48;;;13.00;;
789;SDS011;378;48.844;9.156;2024-02-28T10:50:29;23.83;;;12.25;;
789;SDS011;378;48.844;9.156;2024-02-28T10:53:00;23.08;;;12.20;;
789;SDS011;378;48.844;9.156;2024-02-28T10:55:32;27.20;;;13.50;;
789;SDS011;378;48.844;9.156;2024-02-28T10:58:03;25.20;;;12.75;;
789;SDS011;378;48.844;9.156;2024-02-28T11:00:34;24.92;;;11.60;;
789;SDS011;378;48.844;9.156;2024-02-28T11:03:04;23.50;;;11.50;;
789;SDS011;378;48.844;9.156;2024-02-28T11:05:35;28.27;;;13.18;;
789;SDS011;378;48.844;9.156;2024-02-28T11:08:05;24.52;;;13.27;;
789;SDS011;378;48.844;9.156;2024-02-28T11:16:29;24.63;;;12.45;;
789;SDS011;378;48.844;9.156;2024-02-28T11:18:58;26.33;;;13.35;;
789;SDS011;378;48.844;9.156;2024-02-28T11:21:34;27.25;;;13.52;;
789;SDS011;378;48.844;9.156;2024-02-28T11:24:01;27.17;;;13.95;;
789;SDS011;378;48.844;9.156;2024-02-28T11:26:30;27.55;;;14.18;;
789;SDS011;378;48.844;9.156;2024-02-28T11:28:57;28.13;;;13.80;;
789;SDS011;378;48.844;9.156;2024-02-28T11:31:23;28.20;;;13.65;;
789;SDS011;378;48.844;9.156;2024-02-28T11:33:50;28.05;;;13.90;;
789;SDS011;378;48.844;9.156;2024-02-28T11:36:17;26.23;;;12.30;;
789;SDS011;378;48.844;9.156;2024-02-28T11:38:44;24.90;;;12.50;;
789;SDS011;378;48.844;9.156;2024-02-28T11:41:11;25.50;;;12.98;;
789;SDS011;378;48.844;9.156;2024-02-28T11:43:39;23.63;;;12.13;;
789;SDS011;378;48.844;9.156;2024-02-28T11:46:07;25.48;;;12.85;;
789;SDS011;378;48.844;9.156;2024-02-28T11:48:35;28.52;;;12.85;;
789;SDS011;378;48.844;9.156;2024-02-28T11:51:02;29.80;;;14.05;;
789;SDS011;378;48.844;9.156;2024-02-28T11:53:28;26.25;;;12.55;;
789;SDS011;378;48.844;9.156;2024-02-28T11:55:55;22.50;;;11.77;;
789;SDS011;378;48.844;9.156;2024-02-28T11:58:22;23.05;;;11.88;;
789;SDS011;378;48.844;9.156;2024-02-28T12:00:50;27.42;;;13.15;;
789;SDS011;378;48.844;9.156;2024-02-28T12:03:21;30.92;;;14.48;;
789;SDS011;378;48.844;9.156;2024-02-28T12:05:48;29.08;;;14.05;;
789;SDS011;378;48.844;9.156;2024-02-28T12:08:16;27.95;;;13.48;;
789;SDS011;378;48.844;9.156;2024-02-28T12:10:43;28.30;;;13.25;;
789;SDS011;378;48.844;9.156;2024-02-28T12:13:11;29.60;;;14.07;;
789;SDS011;378;48.844;9.156;2024-02-28T12:15:38;28.48;;;13.50;;
789;SDS011;378;48.844;9.156;2024-02-28T12:18:09;28.98;;;13.60;;
789;SDS011;378;48.844;9.156;2024-02-28T12:20:36;28.63;;;12.88;;
789;SDS011;378;48.844;9.156;2024-02-28T12:23:03;30.67;;;13.50;;
789;SDS011;378;48.844;9.156;2024-02-28T12:25:30;27.85;;;13.80;;
789;SDS011;378;48.844;9.156;2024-02-28T12:27:58;26.92;;;13.00;;
789;SDS011;378;48.844;9.156;2024-02-28T12:30:26;31.88;;;13.98;;
789;SDS011;378;48.844;9.156;2024-02-28T12:32:53;29.25;;;14.57;;
789;SDS011;378;48.844;9.156;2024-02-28T12:35:21;28.95;;;13.23;;
789;SDS011;378;48.844;9.156;2024-02-28T12:37:48;29.77;;;14.00;;
789;SDS011;378;48.844;9.156;2024-02-28T12:40:16;30.27;;;13.73;;
789;SDS011;378;48.844;9.156;2024-02-28T12:42:43;31.48;;;15.02;;
789;SDS011;378;48.844;9.156;2024-02-28T12:45:10;28.48;;;13.25;;
789;SDS011;378;48.844;9.156;2024-02-28T12:47:37;29.08;;;13.27;;
789;SDS011;378;48.844;9.156;2024-02-28T12:50:05;26.25;;;13.52;;
789;SDS011;378;48.844;9.156;2024-02-28T12:52:42;27.27;;;13.73;;
789;SDS011;378;48.844;9.156;2024-02-28T12:55:09;29.88;;;14.00;;
789;SDS011;378;48.844;9.156;2024-02-28T12:57:36;25.65;;;12.60;;
789;SDS011;378;48.844;9.156;2024-02-28T13:00:03;25.90;;;13.15;;
789;SDS011;378;48.844;9.156;2024-02-28T13:02:33;30.27;;;14.02;;
789;SDS011;378;48.844;9.156;2024-02-28T13:05:00;27.50;;;13.23;;
789;SDS011;378;48.844;9.156;2024-02-28T13:07:27;28.23;;;13.48;;
789;SDS011;378;48.844;9.156;2024-02-28T13:09:56;31.92;;;13.32;;
789;SDS011;378;48.844;9.156;2024-02-28T13:12:23;33.60;;;15.18;;
789;SDS011;378;48.844;9.156;2024-02-28T13:14:50;30.98;;;14.38;;
789;SDS011;378;48.844;9.156;2024-02-28T13:17:17;27.75;;;13.57;;
789;SDS011;378;48.844;9.156;2024-02-28T13:19:44;30.27;;;14.60;;
789;SDS011;378;48.844;9.156;2024-02-28T13:22:11;29.58;;;14.77;;
789;SDS011;378;48.844;9.156;2024-02-28T13:24:38;33.83;;;14.55;;
789;SDS011;378;48.844;9.156;2024-02-28T13:27:06;27.02;;;13.25;;
789;SDS011;378;48.844;9.156;2024-02-28T13:29:34;30.73;;;13.57;;
789;SDS011;378;48.844;9.156;2024-02-28T13:32:04;28.20;;;13.52;;
789;SDS011;378;48.844;9.156;2024-02-28T13:34:31;36.80;;;15.30;;
789;SDS011;378;48.844;9.156;2024-02-28T13:36:59;28.75;;;13.48;;
789;SDS011;378;48.844;9.156;2024-02-28T13:39:26;32.85;;;13.90;;
789;SDS011;378;48.844;9.156;2024-02-28T13:41:54;32.35;;;13.68;;
789;SDS011;378;48.844;9.156;2024-02-28T13:44:23;26.98;;;12.50;;
789;SDS011;378;48.844;9.156;2024-02-28T13:46:50;30.40;;;13.20;;
789;SDS011;378;48.844;9.156;2024-02-28T13:49:18;29.38;;;14.25;;
789;SDS011;378;48.844;9.156;2024-02-28T13:51:45;25.77;;;13.25;;
789;SDS011;378;48.844;9.156;2024-02-28T13:54:14;28.33;;;13.55;;
789;SDS011;378;48.844;9.156;2024-02-28T13:56:41;26.40;;;12.43;;
789;SDS011;378;48.844;9.156;2024-02-28T13:59:08;23.58;;;11.77;;
789;SDS011;378;48.844;9.156;2024-02-28T14:01:36;25.33;;;11.52;;
789;SDS011;378;48.844;9.156;2024-02-28T14:04:04;30.35;;;13.57;;
789;SDS011;378;48.844;9.156;2024-02-28T14:06:34;29.83;;;13.55;;
789;SDS011;378;48.844;9.156;2024-02-28T14:09:00;24.58;;;11.57;;
789;SDS011;378;48.844;9.156;2024-02-28T14:11:27;25.70;;;12.50;;
789;SDS011;378;48.844;9.156;2024-02-28T14:13:54;26.80;;;13.13;;
789;SDS011;378;48.844;9.156;2024-02-28T14:16:21;25.23;;;12.73;;
789;SDS011;378;48.844;9.156;2024-02-28T14:18:50;27.45;;;13.52;;
789;SDS011;378;48.844;9.156;2024-02-28T14:21:18;29.50;;;13.90;;
789;SDS011;378;48.844;9.156;2024-02-28T14:23:45;25.98;;;13.20;;
789;SDS011;378;48.844;9.156;2024-02-28T14:26:17;29.33;;;13.00;;
789;SDS011;378;48.844;9.156;2024-02-28T14:28:44;27.70;;;14.00;;
789;SDS011;378;48.844;9.156;2024-02-28T14:31:12;29.17;;;13.15;;
789;SDS011;378;48.844;9.156;2024-02-28T14:33:38;28.48;;;13.43;;
789;SDS011;378;48.844;9.156;2024-02-28T14:36:07;28.35;;;12.25;;
789;SDS011;378;48.844;9.156;2024-02-28T14:38:34;27.23;;;12.93;;
789;SDS011;378;48.844;9.156;2024-02-28T14:41:01;24.35;;;11.57;;
789;SDS011;378;48.844;9.156;2024-02-28T14:43:28;26.23;;;12.45;;
789;SDS011;378;48.844;9.156;2024-02-28T14:45:55;24.15;;;11.82;;
789;SDS011;378;48.844;9.156;2024-02-28T14:48:22;25.40;;;11.82;;
789;SDS011;378;48.844;9.156;2024-02-28T14:50:49;25.30;;;12.38;;
789;SDS011;378;48.844;9.156;2024-02-28T14:53:17;26.55;;;12.82;;
789;SDS011;378;48.844;9.156;2024-02-28T14:55:46;27.95;;;12.10;;
789;SDS011;378;48.844;9.156;2024-02-28T14:58:13;22.45;;;11.07;;
789;SDS011;378;48.844;9.156;2024-02-28T15:00:40;22.70;;;11.35;;
789;SDS011;378;48.844;9.156;2024-02-28T15:03:07;23.17;;;10.88;;
789;SDS011;378;48.844;9.156;2024-02-28T15:05:34;22.15;;;10.77;;
789;SDS011;378;48.844;9.156;2024-02-28T15:08:01;18.75;;;10.25;;
789;SDS011;378;48.844;9.156;2024-02-28T15:10:30;21.73;;;11.20;;
789;SDS011;378;48.844;9.156;2024-02-28T15:12:59;22.90;;;10.95;;
789;SDS011;378;48.844;9.156;2024-02-28T15:15:26;28.85;;;12.80;;
789;SDS011;378;48.844;9.156;2024-02-28T15:17:52;23.08;;;11.00;;
789;SDS011;378;48.844;9.156;2024-02-28T15:20:19;23.67;;;10.95;;
789;SDS011;378;48.844;9.156;2024-02-28T15:22:47;21.55;;;10.48;;
789;SDS011;378;48.844;9.156;2024-02-28T15:25:14;20.95;;;10.10;;